sensor_id;sensor_type;location;lat;lon;timestamp;P1;durP1;ratioP1;P2;durP2;ratioP2
59468;SDS011;45277;52.768;18.262;2023-04-01T00:00:03;32.17;;;21.98;;
59468;SDS011;45277;52.768;18.262;2023-04-01T00:01:36;35.53;;;22.27;;
59468;SDS011;45277;52.768;18.262;2023-04-01T00:03:07;33.53;;;21.65;;
59468;SDS011;45277;52.768;18.262;2023-04-01T00:04:39;34.92;;;21.33;;
59468;SDS011;45277;52.768;18.262;2023-04-01T00:06:14;34.50;;;22.55;;
59468;SDS011;45277;52.768;18.262;2023-04-01T00:07:47;34.58;;;20.85;;
59468;SDS011;45277;52.768;18.262;2023-04-01T00:09:18;32.38;;;21.30;;
59468;SDS011;45277;52.768;18.262;2023-04-01T00:10:50;34.60;;;22.25;;
59468;SDS011;45277;52.768;18.262;2023-04-01T00:12:21;31.17;;;20.30;;
59468;SDS011;45277;52.768;18.262;2023-04-01T00:13:53;28.83;;;17.85;;
59468;SDS011;45277;52.768;18.262;2023-04-01T00:15:25;28.88;;;17.90;;
59468;SDS011;45277;52.768;18.262;2023-04-01T00:16:57;30.25;;;19.85;;
59468;SDS011;45277;52.768;18.262;2023-04-01T00:18:28;30.23;;;20.40;;
59468;SDS011;45277;52.768;18.262;2023-04-01T00:20:00;29.40;;;19.05;;
59468;SDS011;45277;52.768;18.262;2023-04-01T00:21:32;28.42;;;18.88;;
59468;SDS011;45277;52.768;18.262;2023-04-01T00:23:03;27.98;;;17.65;;
59468;SDS011;45277;52.768;18.262;2023-04-01T00:24:35;29.38;;;17.63;;
59468;SDS011;45277;52.768;18.262;2023-04-01T00:26:07;28.15;;;18.38;;
59468;SDS011;45277;52.768;18.262;2023-04-01T00:27:38;27.92;;;18.30;;
59468;SDS011;45277;52.768;18.262;2023-04-01T00:29:10;27.08;;;17.15;;
59468;SDS011;45277;52.768;18.262;2023-04-01T00:30:42;25.60;;;16.90;;
59468;SDS011;45277;52.768;18.262;2023-04-01T00:32:13;27.02;;;18.15;;
59468;SDS011;45277;52.768;18.262;2023-04-01T00:33:45;26.48;;;17.23;;
59468;SDS011;45277;52.768;18.262;2023-04-01T00:35:17;25.70;;;17.52;;
59468;SDS011;45277;52.768;18.262;2023-04-01T00:36:48;31.52;;;18.05;;
59468;SDS011;45277;52.768;18.262;2023-04-01T00:38:23;29.08;;;18.85;;
59468;SDS011;45277;52.768;18.262;2023-04-01T00:39:54;28.83;;;17.45;;
59468;SDS011;45277;52.768;18.262;2023-04-01T00:41:26;21.25;;;15.27;;
59468;SDS011;45277;52.768;18.262;2023-04-01T00:42:58;23.05;;;14.98;;
59468;SDS011;45277;52.768;18.262;2023-04-01T00:44:32;27.20;;;17.70;;
59468;SDS011;45277;52.768;18.262;2023-04-01T00:46:04;28.35;;;18.30;;
59468;SDS011;45277;52.768;18.262;2023-04-01T00:47:36;24.90;;;17.30;;
59468;SDS011;45277;52.768;18.262;2023-04-01T00:49:07;28.95;;;17.88;;
59468;SDS011;45277;52.768;18.262;2023-04-01T00:50:40;29.75;;;18.60;;
59468;SDS011;45277;52.768;18.262;2023-04-01T00:52:16;24.65;;;16.65;;
59468;SDS011;45277;52.768;18.262;2023-04-01T00:53:54;28.42;;;18.63;;
59468;SDS011;45277;52.768;18.262;2023-04-01T00:55:29;29.55;;;17.52;;
59468;SDS011;45277;52.768;18.262;2023-04-01T00:57:12;27.92;;;17.48;;
59468;SDS011;45277;52.768;18.262;2023-04-01T00:58:50;28.55;;;17.40;;
59468;SDS011;45277;52.768;18.262;2023-04-01T01:00:27;27.85;;;17.40;;
59468;SDS011;45277;52.768;18.262;2023-04-01T01:01:58;22.02;;;14.20;;
59468;SDS011;45277;52.768;18.262;2023-04-01T01:03:31;21.33;;;13.27;;
59468;SDS011;45277;52.768;18.262;2023-04-01T01:05:02;21.55;;;15.05;;
59468;SDS011;45277;52.768;18.262;2023-04-01T01:09:10;18.52;;;13.27;;
59468;SDS011;45277;52.768;18.262;2023-04-01T01:10:56;18.48;;;11.60;;
59468;SDS011;45277;52.768;18.262;2023-04-01T01:15:53;16.60;;;9.90;;
59468;SDS011;45277;52.768;18.262;2023-04-01T01:21:15;21.17;;;12.80;;
59468;SDS011;45277;52.768;18.262;2023-04-01T01:23:08;17.20;;;12.23;;
59468;SDS011;45277;52.768;18.262;2023-04-01T01:30:34;19.27;;;10.82;;
59468;SDS011;45277;52.768;18.262;2023-04-01T01:35:56;11.50;;;8.10;;
59468;SDS011;45277;52.768;18.262;2023-04-01T01:37:30;12.02;;;7.13;;
59468;SDS011;45277;52.768;18.262;2023-04-01T01:39:03;12.27;;;7.57;;
59468;SDS011;45277;52.768;18.262;2023-04-01T01:40:38;10.60;;;8.25;;
59468;SDS011;45277;52.768;18.262;2023-04-01T01:42:13;11.32;;;7.35;;
59468;SDS011;45277;52.768;18.262;2023-04-01T01:43:48;11.75;;;8.30;;
59468;SDS011;45277;52.768;18.262;2023-04-01T01:45:21;12.40;;;7.93;;
59468;SDS011;45277;52.768;18.262;2023-04-01T01:46:56;11.73;;;8.38;;
59468;SDS011;45277;52.768;18.262;2023-04-01T01:48:28;11.45;;;8.10;;
59468;SDS011;45277;52.768;18.262;2023-04-01T01:50:01;10.27;;;7.15;;
59468;SDS011;45277;52.768;18.262;2023-04-01T01:51:34;9.07;;;6.93;;
59468;SDS011;45277;52.768;18.262;2023-04-01T01:53:10;9.48;;;5.85;;
59468;SDS011;45277;52.768;18.262;2023-04-01T01:54:52;11.38;;;7.25;;
59468;SDS011;45277;52.768;18.262;2023-04-01T01:56:26;11.10;;;7.90;;
59468;SDS011;45277;52.768;18.262;2023-04-01T01:58:08;9.45;;;6.78;;
59468;SDS011;45277;52.768;18.262;2023-04-01T01:59:52;10.82;;;7.20;;
59468;SDS011;45277;52.768;18.262;2023-04-01T02:01:29;10.75;;;6.03;;
59468;SDS011;45277;52.768;18.262;2023-04-01T02:03:05;9.10;;;6.55;;
59468;SDS011;45277;52.768;18.262;2023-04-01T02:04:38;7.95;;;5.25;;
59468;SDS011;45277;52.768;18.262;2023-04-01T02:06:14;9.43;;;6.38;;
59468;SDS011;45277;52.768;18.262;2023-04-01T02:07:51;9.50;;;6.72;;
59468;SDS011;45277;52.768;18.262;2023-04-01T02:09:36;8.43;;;6.07;;
59468;SDS011;45277;52.768;18.262;2023-04-01T02:11:09;8.57;;;6.32;;
59468;SDS011;45277;52.768;18.262;2023-04-01T02:12:43;10.88;;;6.07;;
59468;SDS011;45277;52.768;18.262;2023-04-01T02:14:21;9.35;;;7.03;;
59468;SDS011;45277;52.768;18.262;2023-04-01T02:15:56;8.88;;;6.57;;
59468;SDS011;45277;52.768;18.262;2023-04-01T02:17:32;8.48;;;6.15;;
59468;SDS011;45277;52.768;18.262;2023-04-01T02:19:04;8.70;;;6.80;;
59468;SDS011;45277;52.768;18.262;2023-04-01T02:20:40;8.60;;;5.60;;
59468;SDS011;45277;52.768;18.262;2023-04-01T02:22:14;8.70;;;6.53;;
59468;SDS011;45277;52.768;18.262;2023-04-01T02:23:50;8.27;;;6.25;;
59468;SDS011;45277;52.768;18.262;2023-04-01T02:25:25;8.88;;;6.90;;
59468;SDS011;45277;52.768;18.262;2023-04-01T02:26:59;8.43;;;6.35;;
59468;SDS011;45277;52.768;18.262;2023-04-01T02:28:31;9.80;;;6.35;;
59468;SDS011;45277;52.768;18.262;2023-04-01T02:30:03;9.18;;;6.75;;
59468;SDS011;45277;52.768;18.262;2023-04-01T02:31:36;9.60;;;6.97;;
59468;SDS011;45277;52.768;18.262;2023-04-01T02:33:07;8.98;;;6.60;;
59468;SDS011;45277;52.768;18.262;2023-04-01T02:34:39;9.02;;;6.80;;
59468;SDS011;45277;52.768;18.262;2023-04-01T02:36:13;7.90;;;5.57;;
59468;SDS011;45277;52.768;18.262;2023-04-01T02:37:46;8.13;;;6.10;;
59468;SDS011;45277;52.768;18.262;2023-04-01T02:39:20;8.73;;;5.80;;
59468;SDS011;45277;52.768;18.262;2023-04-01T02:40:56;8.55;;;6.70;;
59468;SDS011;45277;52.768;18.262;2023-04-01T02:42:30;9.95;;;6.72;;
59468;SDS011;45277;52.768;18.262;2023-04-01T02:44:02;8.45;;;6.05;;
59468;SDS011;45277;52.768;18.262;2023-04-01T02:45:33;9.13;;;5.72;;
59468;SDS011;45277;52.768;18.262;2023-04-01T02:47:05;8.98;;;5.90;;
59468;SDS011;45277;52.768;18.262;2023-04-01T02:48:36;8.68;;;6.22;;
59468;SDS011;45277;52.768;18.262;2023-04-01T02:50:08;8.85;;;5.70;;
59468;SDS011;45277;52.768;18.262;2023-04-01T02:51:40;9.55;;;6.40;;
59468;SDS011;45277;52.768;18.262;2023-04-01T02:53:12;8.75;;;6.40;;
59468;SDS011;45277;52.768;18.262;2023-04-01T02:54:43;9.52;;;6.75;;
59468;SDS011;45277;52.768;18.262;2023-04-01T02:56:15;9.38;;;6.55;;
59468;SDS011;45277;52.768;18.262;2023-04-01T02:57:46;8.55;;;5.78;;
59468;SDS011;45277;52.768;18.262;2023-04-01T02:59:18;7.97;;;5.70;;
59468;SDS011;45277;52.768;18.262;2023-04-01T03:00:49;9.02;;;6.65;;
59468;SDS011;45277;52.768;18.262;2023-04-01T03:02:21;10.27;;;6.65;;
59468;SDS011;45277;52.768;18.262;2023-04-01T03:03:53;9.00;;;6.03;;
59468;SDS011;45277;52.768;18.262;2023-04-01T03:05:24;10.50;;;6.13;;
59468;SDS011;45277;52.768;18.262;2023-04-01T03:06:55;7.63;;;5.93;;
59468;SDS011;45277;52.768;18.262;2023-04-01T03:08:27;8.48;;;6.32;;
59468;SDS011;45277;52.768;18.262;2023-04-01T03:09:58;6.82;;;5.60;;
59468;SDS011;45277;52.768;18.262;2023-04-01T03:11:29;8.52;;;5.72;;
59468;SDS011;45277;52.768;18.262;2023-04-01T03:13:01;7.65;;;5.55;;
59468;SDS011;45277;52.768;18.262;2023-04-01T03:14:32;7.93;;;5.72;;
59468;SDS011;45277;52.768;18.262;2023-04-01T03:16:04;7.45;;;5.85;;
59468;SDS011;45277;52.768;18.262;2023-04-01T03:17:36;9.07;;;6.28;;
59468;SDS011;45277;52.768;18.262;2023-04-01T03:19:07;9.15;;;6.38;;
59468;SDS011;45277;52.768;18.262;2023-04-01T03:20:38;6.72;;;5.45;;
59468;SDS011;45277;52.768;18.262;2023-04-01T03:22:10;7.65;;;6.00;;
59468;SDS011;45277;52.768;18.262;2023-04-01T03:23:42;9.05;;;6.22;;
59468;SDS011;45277;52.768;18.262;2023-04-01T03:25:13;9.63;;;6.47;;
59468;SDS011;45277;52.768;18.262;2023-04-01T03:26:45;9.25;;;6.72;;
59468;SDS011;45277;52.768;18.262;2023-04-01T03:28:16;8.10;;;5.90;;
59468;SDS011;45277;52.768;18.262;2023-04-01T03:29:47;9.50;;;7.00;;
59468;SDS011;45277;52.768;18.262;2023-04-01T03:31:19;9.57;;;6.43;;
59468;SDS011;45277;52.768;18.262;2023-04-01T03:32:51;9.40;;;6.55;;
59468;SDS011;45277;52.768;18.262;2023-04-01T03:34:22;9.63;;;6.50;;
59468;SDS011;45277;52.768;18.262;2023-04-01T03:35:54;8.65;;;6.40;;
59468;SDS011;45277;52.768;18.262;2023-04-01T03:37:25;8.95;;;6.53;;
59468;SDS011;45277;52.768;18.262;2023-04-01T03:38:57;8.13;;;6.10;;
59468;SDS011;45277;52.768;18.262;2023-04-01T03:40:28;8.88;;;6.25;;
59468;SDS011;45277;52.768;18.262;2023-04-01T03:42:00;8.02;;;6.07;;
59468;SDS011;45277;52.768;18.262;2023-04-01T03:43:31;9.13;;;6.63;;
59468;SDS011;45277;52.768;18.262;2023-04-01T03:45:04;10.65;;;7.43;;
59468;SDS011;45277;52.768;18.262;2023-04-01T03:46:36;9.05;;;6.47;;
59468;SDS011;45277;52.768;18.262;2023-04-01T03:48:07;10.77;;;7.75;;
59468;SDS011;45277;52.768;18.262;2023-04-01T03:49:39;10.90;;;7.25;;
59468;SDS011;45277;52.768;18.262;2023-04-01T03:51:10;9.20;;;6.82;;
59468;SDS011;45277;52.768;18.262;2023-04-01T03:52:42;11.50;;;7.80;;
59468;SDS011;45277;52.768;18.262;2023-04-01T03:54:13;10.60;;;7.13;;
59468;SDS011;45277;52.768;18.262;2023-04-01T03:55:45;12.35;;;7.55;;
59468;SDS011;45277;52.768;18.262;2023-04-01T03:57:17;12.02;;;7.63;;
59468;SDS011;45277;52.768;18.262;2023-04-01T03:58:48;12.02;;;7.00;;
59468;SDS011;45277;52.768;18.262;2023-04-01T04:00:20;11.57;;;7.78;;
59468;SDS011;45277;52.768;18.262;2023-04-01T04:01:51;10.50;;;7.05;;
59468;SDS011;45277;52.768;18.262;2023-04-01T04:03:22;13.05;;;8.02;;
59468;SDS011;45277;52.768;18.262;2023-04-01T04:04:54;16.17;;;9.20;;
59468;SDS011;45277;52.768;18.262;2023-04-01T04:06:25;25.20;;;14.35;;
59468;SDS011;45277;52.768;18.262;2023-04-01T04:07:57;15.48;;;8.88;;
59468;SDS011;45277;52.768;18.262;2023-04-01T04:09:31;14.52;;;9.40;;
59468;SDS011;45277;52.768;18.262;2023-04-01T04:11:03;14.13;;;8.85;;
59468;SDS011;45277;52.768;18.262;2023-04-01T04:12:35;16.48;;;10.07;;
59468;SDS011;45277;52.768;18.262;2023-04-01T04:14:06;14.20;;;8.68;;
59468;SDS011;45277;52.768;18.262;2023-04-01T04:15:38;13.25;;;7.90;;
59468;SDS011;45277;52.768;18.262;2023-04-01T04:17:10;14.75;;;8.52;;
59468;SDS011;45277;52.768;18.262;2023-04-01T04:18:46;13.00;;;8.50;;
59468;SDS011;45277;52.768;18.262;2023-04-01T04:20:17;13.50;;;8.50;;
59468;SDS011;45277;52.768;18.262;2023-04-01T04:21:49;13.15;;;8.82;;
59468;SDS011;45277;52.768;18.262;2023-04-01T04:23:21;13.52;;;8.50;;
59468;SDS011;45277;52.768;18.262;2023-04-01T04:24:52;11.95;;;8.30;;
59468;SDS011;45277;52.768;18.262;2023-04-01T04:26:24;14.15;;;8.07;;
59468;SDS011;45277;52.768;18.262;2023-04-01T04:27:56;10.55;;;7.70;;
59468;SDS011;45277;52.768;18.262;2023-04-01T04:29:27;11.57;;;7.45;;
59468;SDS011;45277;52.768;18.262;2023-04-01T04:30:59;10.82;;;7.82;;
59468;SDS011;45277;52.768;18.262;2023-04-01T04:32:31;9.77;;;6.30;;
59468;SDS011;45277;52.768;18.262;2023-04-01T04:34:02;10.80;;;7.72;;
59468;SDS011;45277;52.768;18.262;2023-04-01T04:35:34;12.18;;;8.93;;
59468;SDS011;45277;52.768;18.262;2023-04-01T04:37:06;14.25;;;10.32;;
59468;SDS011;45277;52.768;18.262;2023-04-01T04:38:37;14.20;;;10.40;;
59468;SDS011;45277;52.768;18.262;2023-04-01T04:40:09;14.60;;;9.95;;
59468;SDS011;45277;52.768;18.262;2023-04-01T04:41:40;14.32;;;9.77;;
59468;SDS011;45277;52.768;18.262;2023-04-01T04:43:13;12.88;;;9.20;;
59468;SDS011;45277;52.768;18.262;2023-04-01T04:44:46;12.93;;;9.23;;
59468;SDS011;45277;52.768;18.262;2023-04-01T04:46:18;12.75;;;8.05;;
59468;SDS011;45277;52.768;18.262;2023-04-01T04:47:50;14.73;;;10.30;;
59468;SDS011;45277;52.768;18.262;2023-04-01T04:49:21;12.65;;;9.32;;
59468;SDS011;45277;52.768;18.262;2023-04-01T04:50:52;16.98;;;10.60;;
59468;SDS011;45277;52.768;18.262;2023-04-01T04:52:24;12.85;;;8.52;;
59468;SDS011;45277;52.768;18.262;2023-04-01T04:53:55;13.25;;;9.57;;
59468;SDS011;45277;52.768;18.262;2023-04-01T04:55:26;17.20;;;9.95;;
59468;SDS011;45277;52.768;18.262;2023-04-01T04:56:58;12.48;;;8.68;;
59468;SDS011;45277;52.768;18.262;2023-04-01T04:58:30;14.80;;;9.57;;
59468;SDS011;45277;52.768;18.262;2023-04-01T05:00:01;14.40;;;9.32;;
59468;SDS011;45277;52.768;18.262;2023-04-01T05:01:33;16.95;;;10.18;;
59468;SDS011;45277;52.768;18.262;2023-04-01T05:03:05;19.02;;;10.90;;
59468;SDS011;45277;52.768;18.262;2023-04-01T05:04:36;27.40;;;16.50;;
59468;SDS011;45277;52.768;18.262;2023-04-01T05:06:09;21.67;;;13.48;;
59468;SDS011;45277;52.768;18.262;2023-04-01T05:07:42;26.15;;;16.13;;
59468;SDS011;45277;52.768;18.262;2023-04-01T05:09:14;28.08;;;16.88;;
59468;SDS011;45277;52.768;18.262;2023-04-01T05:10:46;20.23;;;11.85;;
59468;SDS011;45277;52.768;18.262;2023-04-01T05:12:17;23.70;;;16.55;;
59468;SDS011;45277;52.768;18.262;2023-04-01T05:13:49;19.27;;;13.65;;
59468;SDS011;45277;52.768;18.262;2023-04-01T05:15:21;25.85;;;16.90;;
59468;SDS011;45277;52.768;18.262;2023-04-01T05:16:52;22.60;;;15.52;;
59468;SDS011;45277;52.768;18.262;2023-04-01T05:18:24;13.88;;;9.13;;
59468;SDS011;45277;52.768;18.262;2023-04-01T05:19:56;14.10;;;9.55;;
59468;SDS011;45277;52.768;18.262;2023-04-01T05:21:28;15.63;;;9.63;;
59468;SDS011;45277;52.768;18.262;2023-04-01T05:22:59;14.52;;;8.48;;
59468;SDS011;45277;52.768;18.262;2023-04-01T05:24:31;14.80;;;8.48;;
59468;SDS011;45277;52.768;18.262;2023-04-01T05:26:04;12.65;;;7.35;;
59468;SDS011;45277;52.768;18.262;2023-04-01T05:27:36;17.95;;;10.93;;
59468;SDS011;45277;52.768;18.262;2023-04-01T05:29:07;9.23;;;5.75;;
59468;SDS011;45277;52.768;18.262;2023-04-01T05:30:40;15.40;;;8.48;;
59468;SDS011;45277;52.768;18.262;2023-04-01T05:32:12;10.80;;;6.85;;
59468;SDS011;45277;52.768;18.262;2023-04-01T05:33:43;11.73;;;7.53;;
59468;SDS011;45277;52.768;18.262;2023-04-01T05:35:15;11.65;;;6.93;;
59468;SDS011;45277;52.768;18.262;2023-04-01T05:36:46;12.25;;;8.02;;
59468;SDS011;45277;52.768;18.262;2023-04-01T05:38:18;13.07;;;7.93;;
59468;SDS011;45277;52.768;18.262;2023-04-01T05:39:50;13.45;;;8.25;;
59468;SDS011;45277;52.768;18.262;2023-04-01T05:41:21;13.23;;;8.18;;
59468;SDS011;45277;52.768;18.262;2023-04-01T05:42:52;12.70;;;7.63;;
59468;SDS011;45277;52.768;18.262;2023-04-01T05:44:24;13.75;;;9.18;;
59468;SDS011;45277;52.768;18.262;2023-04-01T05:45:56;10.60;;;7.28;;
59468;SDS011;45277;52.768;18.262;2023-04-01T05:47:27;14.10;;;8.95;;
59468;SDS011;45277;52.768;18.262;2023-04-01T05:48:59;16.83;;;9.05;;
59468;SDS011;45277;52.768;18.262;2023-04-01T05:50:30;14.02;;;7.88;;
59468;SDS011;45277;52.768;18.262;2023-04-01T05:52:02;13.10;;;7.72;;
59468;SDS011;45277;52.768;18.262;2023-04-01T05:53:33;12.73;;;6.75;;
59468;SDS011;45277;52.768;18.262;2023-04-01T05:55:05;8.20;;;5.03;;
59468;SDS011;45277;52.768;18.262;2023-04-01T05:56:37;7.15;;;4.10;;
59468;SDS011;45277;52.768;18.262;2023-04-01T05:58:08;9.82;;;6.28;;
59468;SDS011;45277;52.768;18.262;2023-04-01T05:59:40;14.77;;;7.53;;
59468;SDS011;45277;52.768;18.262;2023-04-01T06:01:11;9.13;;;7.00;;
59468;SDS011;45277;52.768;18.262;2023-04-01T06:02:43;9.90;;;6.50;;
59468;SDS011;45277;52.768;18.262;2023-04-01T06:04:15;14.98;;;8.55;;
59468;SDS011;45277;52.768;18.262;2023-04-01T06:05:48;10.63;;;6.28;;
59468;SDS011;45277;52.768;18.262;2023-04-01T06:07:20;13.52;;;8.10;;
59468;SDS011;45277;52.768;18.262;2023-04-01T06:08:52;16.48;;;10.15;;
59468;SDS011;45277;52.768;18.262;2023-04-01T06:10:25;13.93;;;7.93;;
59468;SDS011;45277;52.768;18.262;2023-04-01T06:15:53;15.30;;;9.43;;
59468;SDS011;45277;52.768;18.262;2023-04-01T06:17:59;16.85;;;10.35;;
59468;SDS011;45277;52.768;18.262;2023-04-01T06:23:06;14.32;;;8.45;;
59468;SDS011;45277;52.768;18.262;2023-04-01T06:24:53;17.30;;;9.60;;
59468;SDS011;45277;52.768;18.262;2023-04-01T06:28:47;15.00;;;8.27;;
59468;SDS011;45277;52.768;18.262;2023-04-01T06:38:25;13.20;;;7.20;;
59468;SDS011;45277;52.768;18.262;2023-04-01T06:45:53;12.68;;;8.10;;
59468;SDS011;45277;52.768;18.262;2023-04-01T06:47:50;17.10;;;9.73;;
59468;SDS011;45277;52.768;18.262;2023-04-01T06:49:33;13.80;;;7.70;;
59468;SDS011;45277;52.768;18.262;2023-04-01T06:53:12;23.35;;;12.48;;
59468;SDS011;45277;52.768;18.262;2023-04-01T06:56:07;16.70;;;9.10;;
59468;SDS011;45277;52.768;18.262;2023-04-01T06:59:00;23.10;;;12.65;;
59468;SDS011;45277;52.768;18.262;2023-04-01T07:00:37;20.90;;;11.15;;
59468;SDS011;45277;52.768;18.262;2023-04-01T07:05:50;26.33;;;13.27;;
59468;SDS011;45277;52.768;18.262;2023-04-01T07:07:47;24.95;;;13.38;;
59468;SDS011;45277;52.768;18.262;2023-04-01T07:09:25;25.38;;;12.98;;
59468;SDS011;45277;52.768;18.262;2023-04-01T07:11:44;15.18;;;8.52;;
59468;SDS011;45277;52.768;18.262;2023-04-01T07:13:25;14.23;;;7.72;;
59468;SDS011;45277;52.768;18.262;2023-04-01T07:15:04;14.43;;;8.63;;
59468;SDS011;45277;52.768;18.262;2023-04-01T07:16:47;12.85;;;7.90;;
59468;SDS011;45277;52.768;18.262;2023-04-01T07:18:38;26.55;;;11.80;;
59468;SDS011;45277;52.768;18.262;2023-04-01T07:20:30;19.77;;;10.85;;
59468;SDS011;45277;52.768;18.262;2023-04-01T07:22:04;16.35;;;8.52;;
59468;SDS011;45277;52.768;18.262;2023-04-01T07:23:59;24.35;;;13.00;;
59468;SDS011;45277;52.768;18.262;2023-04-01T07:25:43;15.65;;;9.20;;
59468;SDS011;45277;52.768;18.262;2023-04-01T07:27:16;23.70;;;12.65;;
59468;SDS011;45277;52.768;18.262;2023-04-01T07:28:48;25.60;;;13.32;;
59468;SDS011;45277;52.768;18.262;2023-04-01T07:30:23;20.52;;;10.65;;
59468;SDS011;45277;52.768;18.262;2023-04-01T07:32:10;13.48;;;7.60;;
59468;SDS011;45277;52.768;18.262;2023-04-01T07:33:49;24.60;;;12.18;;
59468;SDS011;45277;52.768;18.262;2023-04-01T07:37:28;22.23;;;11.30;;
59468;SDS011;45277;52.768;18.262;2023-04-01T07:39:28;21.85;;;11.95;;
59468;SDS011;45277;52.768;18.262;2023-04-01T07:41:28;24.70;;;13.40;;
59468;SDS011;45277;52.768;18.262;2023-04-01T07:47:13;25.98;;;13.20;;
59468;SDS011;45277;52.768;18.262;2023-04-01T07:51:02;19.20;;;10.45;;
59468;SDS011;45277;52.768;18.262;2023-04-01T07:52:58;24.63;;;14.10;;
59468;SDS011;45277;52.768;18.262;2023-04-01T07:54:37;25.65;;;13.10;;
59468;SDS011;45277;52.768;18.262;2023-04-01T07:57:59;24.95;;;12.60;;
59468;SDS011;45277;52.768;18.262;2023-04-01T07:59:54;22.25;;;13.00;;
59468;SDS011;45277;52.768;18.262;2023-04-01T08:09:02;14.15;;;9.38;;
59468;SDS011;45277;52.768;18.262;2023-04-01T08:10:57;16.98;;;9.93;;
59468;SDS011;45277;52.768;18.262;2023-04-01T08:12:57;21.23;;;12.02;;
59468;SDS011;45277;52.768;18.262;2023-04-01T08:14:37;24.73;;;13.05;;
59468;SDS011;45277;52.768;18.262;2023-04-01T08:18:29;23.70;;;13.20;;
59468;SDS011;45277;52.768;18.262;2023-04-01T08:22:09;23.40;;;14.45;;
59468;SDS011;45277;52.768;18.262;2023-04-01T08:23:49;20.42;;;11.57;;
59468;SDS011;45277;52.768;18.262;2023-04-01T08:25:25;15.30;;;9.00;;
59468;SDS011;45277;52.768;18.262;2023-04-01T08:26:59;27.60;;;14.65;;
59468;SDS011;45277;52.768;18.262;2023-04-01T08:28:37;17.92;;;9.88;;
59468;SDS011;45277;52.768;18.262;2023-04-01T08:30:26;18.98;;;11.00;;
59468;SDS011;45277;52.768;18.262;2023-04-01T08:32:15;13.43;;;8.32;;
59468;SDS011;45277;52.768;18.262;2023-04-01T08:33:54;20.13;;;12.68;;
59468;SDS011;45277;52.768;18.262;2023-04-01T08:35:27;23.23;;;13.60;;
59468;SDS011;45277;52.768;18.262;2023-04-01T08:37:24;21.23;;;12.13;;
59468;SDS011;45277;52.768;18.262;2023-04-01T08:39:12;21.55;;;12.27;;
59468;SDS011;45277;52.768;18.262;2023-04-01T08:41:20;21.13;;;11.70;;
59468;SDS011;45277;52.768;18.262;2023-04-01T08:43:21;21.13;;;11.63;;
59468;SDS011;45277;52.768;18.262;2023-04-01T08:49:01;18.25;;;11.50;;
59468;SDS011;45277;52.768;18.262;2023-04-01T09:00:31;16.20;;;10.50;;
59468;SDS011;45277;52.768;18.262;2023-04-01T09:07:45;13.95;;;8.40;;
59468;SDS011;45277;52.768;18.262;2023-04-01T09:17:50;10.13;;;7.35;;
59468;SDS011;45277;52.768;18.262;2023-04-01T09:22:20;14.85;;;7.70;;
59468;SDS011;45277;52.768;18.262;2023-04-01T09:24:12;15.75;;;8.07;;
59468;SDS011;45277;52.768;18.262;2023-04-01T09:27:27;15.98;;;9.00;;
59468;SDS011;45277;52.768;18.262;2023-04-01T09:33:50;12.52;;;6.18;;
59468;SDS011;45277;52.768;18.262;2023-04-01T09:44:58;13.70;;;8.05;;
59468;SDS011;45277;52.768;18.262;2023-04-01T09:53:36;9.55;;;7.32;;
59468;SDS011;45277;52.768;18.262;2023-04-01T09:55:21;11.93;;;6.70;;
59468;SDS011;45277;52.768;18.262;2023-04-01T09:57:17;5.40;;;4.45;;
59468;SDS011;45277;52.768;18.262;2023-04-01T10:12:18;12.93;;;8.63;;
59468;SDS011;45277;52.768;18.262;2023-04-01T10:19:49;30.20;;;19.20;;
59468;SDS011;45277;52.768;18.262;2023-04-01T10:22:43;26.00;;;17.83;;
59468;SDS011;45277;52.768;18.262;2023-04-01T10:37:03;22.20;;;13.73;;
59468;SDS011;45277;52.768;18.262;2023-04-01T10:39:19;23.15;;;15.57;;
59468;SDS011;45277;52.768;18.262;2023-04-01T10:43:06;25.45;;;15.02;;
59468;SDS011;45277;52.768;18.262;2023-04-01T10:45:04;11.88;;;8.32;;
59468;SDS011;45277;52.768;18.262;2023-04-01T10:48:52;12.75;;;9.05;;
59468;SDS011;45277;52.768;18.262;2023-04-01T10:54:47;28.67;;;21.75;;
59468;SDS011;45277;52.768;18.262;2023-04-01T10:59:15;15.65;;;12.23;;
59468;SDS011;45277;52.768;18.262;2023-04-01T11:01:14;15.80;;;11.68;;
59468;SDS011;45277;52.768;18.262;2023-04-01T11:12:28;15.30;;;9.68;;
59468;SDS011;45277;52.768;18.262;2023-04-01T11:34:19;12.60;;;8.13;;
59468;SDS011;45277;52.768;18.262;2023-04-01T11:36:06;17.02;;;12.05;;
59468;SDS011;45277;52.768;18.262;2023-04-01T11:51:44;20.65;;;14.50;;
59468;SDS011;45277;52.768;18.262;2023-04-01T11:53:42;21.38;;;13.55;;
59468;SDS011;45277;52.768;18.262;2023-04-01T12:01:30;14.48;;;9.80;;
59468;SDS011;45277;52.768;18.262;2023-04-01T12:07:27;29.95;;;23.33;;
59468;SDS011;45277;52.768;18.262;2023-04-01T12:15:05;16.55;;;9.85;;
59468;SDS011;45277;52.768;18.262;2023-04-01T12:21:25;22.13;;;17.45;;
59468;SDS011;45277;52.768;18.262;2023-04-01T12:23:32;25.42;;;16.55;;
59468;SDS011;45277;52.768;18.262;2023-04-01T12:25:25;23.38;;;16.38;;
59468;SDS011;45277;52.768;18.262;2023-04-01T12:34:22;17.95;;;12.40;;
59468;SDS011;45277;52.768;18.262;2023-04-01T12:41:39;10.88;;;8.40;;
59468;SDS011;45277;52.768;18.262;2023-04-01T12:53:23;12.63;;;8.02;;
59468;SDS011;45277;52.768;18.262;2023-04-01T12:55:03;16.27;;;9.23;;
59468;SDS011;45277;52.768;18.262;2023-04-01T12:57:20;12.48;;;8.85;;
59468;SDS011;45277;52.768;18.262;2023-04-01T12:59:01;11.02;;;7.72;;
59468;SDS011;45277;52.768;18.262;2023-04-01T13:06:13;14.18;;;8.23;;
59468;SDS011;45277;52.768;18.262;2023-04-01T13:09:40;11.30;;;8.93;;
59468;SDS011;45277;52.768;18.262;2023-04-01T13:13:20;10.63;;;8.77;;
59468;SDS011;45277;52.768;18.262;2023-04-01T13:16:55;12.13;;;10.23;;
59468;SDS011;45277;52.768;18.262;2023-04-01T13:18:58;13.80;;;10.25;;
59468;SDS011;45277;52.768;18.262;2023-04-01T13:24:00;10.82;;;9.45;;
59468;SDS011;45277;52.768;18.262;2023-04-01T13:25:39;14.32;;;9.82;;
59468;SDS011;45277;52.768;18.262;2023-04-01T13:27:24;16.20;;;11.45;;
59468;SDS011;45277;52.768;18.262;2023-04-01T13:32:41;14.20;;;11.13;;
59468;SDS011;45277;52.768;18.262;2023-04-01T13:37:11;6.32;;;5.03;;
59468;SDS011;45277;52.768;18.262;2023-04-01T13:39:19;8.98;;;7.60;;
59468;SDS011;45277;52.768;18.262;2023-04-01T13:43:51;9.27;;;8.10;;
59468;SDS011;45277;52.768;18.262;2023-04-01T13:45:14;10.05;;;7.78;;
59468;SDS011;45277;52.768;18.262;2023-04-01T13:47:08;8.10;;;6.88;;
59468;SDS011;45277;52.768;18.262;2023-04-01T13:48:57;8.95;;;7.82;;
59468;SDS011;45277;52.768;18.262;2023-04-01T13:50:45;11.60;;;9.68;;
59468;SDS011;45277;52.768;18.262;2023-04-01T13:54:47;9.93;;;7.78;;
59468;SDS011;45277;52.768;18.262;2023-04-01T14:00:19;10.88;;;9.05;;
59468;SDS011;45277;52.768;18.262;2023-04-01T14:04:08;8.27;;;6.80;;
59468;SDS011;45277;52.768;18.262;2023-04-01T14:05:52;6.40;;;5.05;;
59468;SDS011;45277;52.768;18.262;2023-04-01T14:11:51;7.90;;;6.72;;
59468;SDS011;45277;52.768;18.262;2023-04-01T14:34:05;13.23;;;8.48;;
59468;SDS011;45277;52.768;18.262;2023-04-01T14:36:03;16.42;;;11.27;;
59468;SDS011;45277;52.768;18.262;2023-04-01T14:39:59;14.18;;;10.25;;
59468;SDS011;45277;52.768;18.262;2023-04-01T14:45:58;9.23;;;7.90;;
59468;SDS011;45277;52.768;18.262;2023-04-01T14:49:37;9.55;;;7.03;;